Time;durP1;ratioP1;P1;durP2;ratioP2;P2;SDS_P1;SDS_P2;PMS_P1;PMS_P2;Temp;Humidity;BMP_temperature;BMP_pressure;BME280_temperature;BME280_humidity;BME280_pressure;Samples;Min_cycle;Max_cycle;Signal;HPM_P1;HPM_P2
2021/05/10 00:00:15;;;;;;;4.80;1.42;;;15.10;99.90;;;;;;1863605;77;21067;-79
2021/05/10 00:02:41;;;;;;;7.67;0.60;;;15.10;99.90;;;;;;1863406;77;21122;-78
2021/05/10 00:05:07;;;;;;;0.68;0.62;;;15.20;99.90;;;;;;1863556;77;21063;-79
2021/05/10 00:07:34;;;;;;;0.80;0.70;;;15.20;99.90;;;;;;1863399;77;21045;-79
2021/05/10 00:10:00;;;;;;;0.70;0.62;;;15.10;99.90;;;;;;1863530;77;21072;-79
2021/05/10 00:12:26;;;;;;;0.60;0.50;;;15.10;99.90;;;;;;1863499;77;21071;-78
2021/05/10 00:14:52;;;;;;;0.60;0.60;;;15.20;99.90;;;;;;1863472;77;21075;-80
2021/05/10 00:17:18;;;;;;;6.85;0.78;;;15.30;99.90;;;;;;1863629;77;21044;-78
2021/05/10 00:19:44;;;;;;;2.58;0.62;;;15.20;99.90;;;;;;1863534;77;21067;-79
2021/05/10 00:22:10;;;;;;;0.80;0.70;;;15.20;99.90;;;;;;1863539;77;21077;-79
2021/05/10 00:24:36;;;;;;;4.97;0.93;;;15.20;99.90;;;;;;1863438;77;21072;-78
2021/05/10 00:27:03;;;;;;;3.52;0.70;;;15.20;99.90;;;;;;1863443;77;21157;-78
2021/05/10 00:29:29;;;;;;;1.32;0.57;;;15.20;99.90;;;;;;1863579;77;21045;-78
2021/05/10 00:31:55;;;;;;;3.47;0.90;;;15.10;99.90;;;;;;1863436;77;21067;-77
2021/05/10 00:34:21;;;;;;;0.85;0.60;;;15.20;99.90;;;;;;1863493;77;21615;-78
2021/05/10 00:36:47;;;;;;;2.10;1.00;;;15.10;99.90;;;;;;1863492;77;21480;-77
2021/05/10 00:39:13;;;;;;;1.17;0.88;;;15.10;99.90;;;;;;1858362;77;21573;-78
2021/05/10 00:41:39;;;;;;;0.95;0.85;;;15.10;99.90;;;;;;1863360;76;21617;-78
2021/05/10 00:44:05;;;;;;;1.00;0.80;;;15.00;99.90;;;;;;1863431;77;21487;-77
2021/05/10 00:46:32;;;;;;;5.00;0.90;;;14.90;99.90;;;;;;1863450;77;21600;-78
2021/05/10 00:48:58;;;;;;;0.93;0.78;;;14.90;99.90;;;;;;1863428;77;21068;-78
2021/05/10 00:51:24;;;;;;;2.77;0.60;;;14.80;99.90;;;;;;1863432;77;21087;-78
2021/05/10 00:53:50;;;;;;;2.62;0.78;;;14.70;99.90;;;;;;1863434;77;21195;-78
2021/05/10 00:56:16;;;;;;;1.17;0.80;;;14.70;99.90;;;;;;1863505;77;21084;-77
2021/05/10 00:58:42;;;;;;;1.57;0.55;;;14.70;99.90;;;;;;1863438;77;21109;-78
2021/05/10 01:01:08;;;;;;;0.45;0.45;;;14.60;99.90;;;;;;1863527;77;21079;-78
2021/05/10 01:03:35;;;;;;;1.75;0.60;;;14.60;99.90;;;;;;1863527;77;21079;-78
2021/05/10 01:06:01;;;;;;;0.85;0.75;;;14.40;99.90;;;;;;1863559;77;21117;-77
2021/05/10 01:08:27;;;;;;;1.52;0.70;;;14.40;99.90;;;;;;1863459;77;21052;-79
2021/05/10 01:10:53;;;;;;;0.60;0.60;;;14.30;99.90;;;;;;1863426;77;21059;-79
2021/05/10 01:13:19;;;;;;;0.62;0.50;;;14.20;99.90;;;;;;1863449;77;21075;-77
2021/05/10 01:15:45;;;;;;;1.35;0.80;;;14.10;99.90;;;;;;1863418;77;21100;-77
2021/05/10 01:18:12;;;;;;;0.85;0.60;;;14.10;99.90;;;;;;1863493;77;21114;-77
2021/05/10 01:20:38;;;;;;;1.67;0.75;;;14.00;99.90;;;;;;1863430;77;21075;-78
2021/05/10 01:23:05;;;;;;;0.60;0.60;;;14.00;99.90;;;;;;1863443;77;21112;-78
2021/05/10 01:25:31;;;;;;;1.90;0.72;;;13.90;99.90;;;;;;1863522;77;21079;-78
2021/05/10 01:27:57;;;;;;;0.60;0.60;;;13.80;99.90;;;;;;1863627;77;21075;-78
2021/05/10 01:30:26;;;;;;;1.35;0.80;;;13.80;99.90;;;;;;1863508;77;21087;-78
2021/05/10 01:32:51;;;;;;;4.87;0.78;;;13.80;99.90;;;;;;1863033;77;21504;-78
2021/05/10 01:35:17;;;;;;;0.62;0.62;;;13.80;99.90;;;;;;1863520;77;21432;-77
2021/05/10 01:37:43;;;;;;;1.65;1.25;;;13.80;99.90;;;;;;1863592;77;21472;-77
2021/05/10 01:40:09;;;;;;;3.45;0.70;;;13.80;99.90;;;;;;1863562;77;21508;-77
2021/05/10 01:42:35;;;;;;;6.67;1.12;;;13.70;99.90;;;;;;1863559;77;21433;-78
2021/05/10 01:45:01;;;;;;;2.52;0.90;;;13.70;99.90;;;;;;1863738;77;21079;-77
2021/05/10 01:47:28;;;;;;;3.15;0.75;;;13.60;99.90;;;;;;1863531;77;21110;-77
2021/05/10 01:49:54;;;;;;;2.37;1.05;;;13.40;99.90;;;;;;1863544;77;21161;-77
2021/05/10 01:52:20;;;;;;;4.05;0.70;;;13.40;99.90;;;;;;1863617;77;21064;-77
2021/05/10 01:54:47;;;;;;;1.10;0.78;;;13.40;99.90;;;;;;1863834;77;21080;-76
2021/05/10 01:57:14;;;;;;;1.82;0.80;;;13.30;99.90;;;;;;1863630;77;21516;-77
2021/05/10 01:59:40;;;;;;;0.80;0.70;;;13.30;99.90;;;;;;1863519;77;21478;-77
2021/05/10 02:02:06;;;;;;;0.98;0.70;;;13.30;99.90;;;;;;1863514;77;21488;-77
2021/05/10 02:04:32;;;;;;;1.10;0.90;;;13.20;99.90;;;;;;1863545;77;21492;-76
2021/05/10 02:06:58;;;;;;;0.88;0.78;;;13.20;99.90;;;;;;1863621;77;21519;-77
2021/05/10 02:09:24;;;;;;;2.20;1.10;;;13.20;99.90;;;;;;1863528;77;21092;-78
2021/05/10 02:11:50;;;;;;;0.60;0.60;;;13.10;99.90;;;;;;1863529;77;21071;-77
2021/05/10 02:14:18;;;;;;;1.15;1.05;;;13.10;99.90;;;;;;1863514;77;21052;-77
2021/05/10 02:16:44;;;;;;;0.78;0.70;;;13.10;99.90;;;;;;1863548;77;21056;-77
2021/05/10 02:19:10;;;;;;;5.80;1.25;;;13.10;99.90;;;;;;1863514;77;21072;-77
2021/05/10 02:21:36;;;;;;;3.50;1.05;;;13.10;99.90;;;;;;1863560;77;21076;-78
2021/05/10 02:24:02;;;;;;;1.20;0.82;;;13.10;99.90;;;;;;1863490;77;21146;-77
2021/05/10 02:26:28;;;;;;;0.62;0.62;;;13.20;99.90;;;;;;1863534;77;21049;-78
2021/05/10 02:29:01;;;;;;;1.27;0.70;;;13.20;99.90;;;;;;1863575;77;21079;-78
2021/05/10 02:31:22;;;;;;;2.87;0.80;;;13.30;99.90;;;;;;1862587;77;21582;-77
2021/05/10 02:33:48;;;;;;;2.08;0.78;;;13.30;99.90;;;;;;1863638;77;21449;-77
2021/05/10 02:36:14;;;;;;;0.57;0.57;;;13.30;99.90;;;;;;1863553;77;21478;-78
2021/05/10 02:38:41;;;;;;;7.70;1.30;;;13.10;99.90;;;;;;1863523;77;21605;-78
2021/05/10 02:41:08;;;;;;;1.92;1.15;;;13.20;99.90;;;;;;1863552;77;21072;-78
2021/05/10 02:43:34;;;;;;;2.98;0.75;;;13.30;99.90;;;;;;1863622;77;21083;-78
2021/05/10 02:46:00;;;;;;;1.42;0.93;;;13.20;99.90;;;;;;1863546;77;21071;-78
2021/05/10 02:48:27;;;;;;;0.85;0.70;;;13.10;99.90;;;;;;1863522;77;21060;-78
2021/05/10 02:50:53;;;;;;;1.72;0.93;;;13.20;99.90;;;;;;1863533;77;21201;-78
2021/05/10 02:53:19;;;;;;;0.80;0.70;;;13.10;99.90;;;;;;1863553;77;21589;-77
2021/05/10 02:55:45;;;;;;;1.50;0.88;;;13.20;99.90;;;;;;1863621;77;21079;-77
2021/05/10 02:58:11;;;;;;;3.45;1.17;;;13.10;99.90;;;;;;1861600;76;21075;-77
2021/05/10 03:00:37;;;;;;;2.80;1.02;;;13.10;99.90;;;;;;1863502;77;21053;-78
2021/05/10 03:03:03;;;;;;;5.67;1.32;;;13.10;99.90;;;;;;1863520;77;21072;-78
2021/05/10 03:05:29;;;;;;;2.62;1.42;;;13.10;99.90;;;;;;1863606;77;21161;-78
2021/05/10 03:07:58;;;;;;;2.00;1.30;;;13.10;99.90;;;;;;1863427;77;21182;-78
2021/05/10 03:10:24;;;;;;;3.65;1.17;;;13.00;99.90;;;;;;1863439;77;21472;-78
2021/05/10 03:12:50;;;;;;;1.05;0.85;;;13.10;99.90;;;;;;1863610;77;21083;-78
2021/05/10 03:15:17;;;;;;;2.00;0.93;;;13.10;99.90;;;;;;1863500;77;21048;-78
2021/05/10 03:17:43;;;;;;;5.78;1.27;;;13.10;99.90;;;;;;1863497;77;21098;-78
2021/05/10 03:20:09;;;;;;;2.12;1.02;;;13.00;99.90;;;;;;1863482;77;21480;-78
2021/05/10 03:22:35;;;;;;;4.10;1.00;;;13.00;99.90;;;;;;1863474;77;21464;-78
2021/05/10 03:25:01;;;;;;;7.37;1.32;;;12.90;99.90;;;;;;1863560;77;21149;-78
2021/05/10 03:27:27;;;;;;;1.70;1.12;;;12.70;99.90;;;;;;1863491;77;21072;-78
2021/05/10 03:29:53;;;;;;;0.95;0.90;;;12.80;99.90;;;;;;1863512;77;21068;-78
2021/05/10 03:32:20;;;;;;;2.17;0.93;;;12.80;99.90;;;;;;1863686;77;21071;-78
2021/05/10 03:34:46;;;;;;;1.17;0.90;;;12.70;99.90;;;;;;1863606;77;21072;-78
2021/05/10 03:37:12;;;;;;;2.58;0.82;;;12.60;99.90;;;;;;1863580;77;21177;-77
2021/05/10 03:39:38;;;;;;;3.22;1.30;;;12.70;99.90;;;;;;1863469;76;21048;-77
2021/05/10 03:42:04;;;;;;;1.82;1.07;;;12.70;99.90;;;;;;1863475;77;21480;-78
2021/05/10 03:44:30;;;;;;;4.17;1.20;;;12.70;99.90;;;;;;1863497;77;21503;-78
2021/05/10 03:46:56;;;;;;;1.10;1.00;;;12.70;99.90;;;;;;1863464;77;21075;-79
2021/05/10 03:49:23;;;;;;;1.95;1.07;;;12.90;99.90;;;;;;1863486;77;21091;-78
2021/05/10 03:51:49;;;;;;;1.67;1.25;;;12.90;99.90;;;;;;1863486;77;21052;-79
2021/05/10 03:54:15;;;;;;;5.28;1.25;;;13.00;99.90;;;;;;1863582;77;21059;-78
2021/05/10 03:56:41;;;;;;;1.95;1.30;;;13.10;99.90;;;;;;1863700;77;21072;-79
2021/05/10 03:59:07;;;;;;;2.10;1.12;;;13.10;99.90;;;;;;1863615;77;21072;-78
2021/05/10 04:01:33;;;;;;;3.72;1.00;;;13.10;99.90;;;;;;1863596;77;21056;-78
2021/05/10 04:14:44;;;;;;;1.35;0.90;;;13.40;99.90;;;;;;1863459;77;21084;-77
2021/05/10 04:17:10;;;;;;;1.82;1.12;;;13.30;99.90;;;;;;1863670;77;21081;-77
2021/05/10 04:19:36;;;;;;;1.00;0.90;;;13.40;99.90;;;;;;1863655;77;21080;-77
2021/05/10 04:22:03;;;;;;;2.90;1.25;;;13.50;99.90;;;;;;1863373;77;21112;-77
2021/05/10 04:24:29;;;;;;;1.70;1.22;;;13.50;99.90;;;;;;1863540;77;21083;-77
2021/05/10 04:26:55;;;;;;;1.98;1.12;;;13.50;99.90;;;;;;1863365;77;21121;-78
2021/05/10 04:29:21;;;;;;;3.05;1.20;;;13.40;99.90;;;;;;1863535;77;21169;-78
2021/05/10 04:31:47;;;;;;;8.55;0.95;;;13.40;99.90;;;;;;1863373;76;21095;-77
2021/05/10 04:34:13;;;;;;;2.25;1.30;;;13.50;99.90;;;;;;1863685;77;21125;-78
2021/05/10 04:36:39;;;;;;;2.27;1.35;;;13.50;99.90;;;;;;1863435;77;21063;-78
2021/05/10 04:39:05;;;;;;;0.93;0.90;;;13.70;99.90;;;;;;1863227;76;21528;-78
2021/05/10 04:41:32;;;;;;;1.50;0.80;;;13.70;99.90;;;;;;1863372;77;21492;-77
2021/05/10 04:43:58;;;;;;;1.07;0.93;;;13.80;99.90;;;;;;1863508;77;21479;-77
2021/05/10 04:46:24;;;;;;;3.67;1.10;;;13.90;99.90;;;;;;1863438;77;21515;-78
2021/05/10 04:48:50;;;;;;;5.17;1.40;;;13.90;99.90;;;;;;1863449;77;21552;-77
2021/05/10 04:51:16;;;;;;;7.92;1.27;;;13.90;99.90;;;;;;1863368;77;21552;-76
2021/05/10 04:53:42;;;;;;;1.22;1.00;;;13.90;99.90;;;;;;1863431;77;21512;-75
2021/05/10 04:56:08;;;;;;;11.65;1.25;;;13.90;99.90;;;;;;1863383;76;21057;-75
2021/05/10 04:58:34;;;;;;;8.93;1.55;;;14.10;99.90;;;;;;1863524;77;21137;-74
2021/05/10 05:01:01;;;;;;;4.95;1.30;;;14.10;99.90;;;;;;1863456;77;21080;-74
2021/05/10 05:03:27;;;;;;;4.10;1.00;;;14.30;99.90;;;;;;1863672;77;21084;-74
2021/05/10 05:05:53;;;;;;;2.75;1.15;;;14.30;99.90;;;;;;1863464;77;21189;-76
2021/05/10 05:08:19;;;;;;;5.25;1.40;;;14.50;99.90;;;;;;1863777;77;21080;-74
2021/05/10 05:10:45;;;;;;;5.45;1.40;;;14.70;99.90;;;;;;1863454;77;21096;-74
2021/05/10 05:13:11;;;;;;;4.87;1.32;;;14.80;99.90;;;;;;1863644;77;21158;-73
2021/05/10 05:15:38;;;;;;;5.70;1.25;;;14.80;99.90;;;;;;1863435;77;21092;-74
2021/05/10 05:18:04;;;;;;;6.22;1.47;;;14.90;99.90;;;;;;1863693;77;21057;-74
2021/05/10 05:20:36;;;;;;;7.45;1.25;;;15.00;99.90;;;;;;1863579;77;21122;-74
2021/05/10 05:22:58;;;;;;;9.55;1.67;;;15.30;99.90;;;;;;1862754;77;21112;-74
2021/05/10 05:25:24;;;;;;;3.22;1.35;;;15.10;99.90;;;;;;1863549;77;21460;-74
2021/05/10 05:27:50;;;;;;;8.80;1.80;;;14.90;99.90;;;;;;1863676;77;21457;-75
2021/05/10 05:30:16;;;;;;;9.38;1.60;;;15.10;99.90;;;;;;1863641;77;21051;-75
2021/05/10 05:32:42;;;;;;;6.55;1.05;;;15.20;99.90;;;;;;1863433;77;21111;-75
2021/05/10 05:35:09;;;;;;;3.65;1.55;;;15.40;99.90;;;;;;1863744;77;21072;-76
2021/05/10 05:37:35;;;;;;;4.28;1.30;;;15.50;99.90;;;;;;1863524;77;21071;-75
2021/05/10 05:40:01;;;;;;;7.97;1.30;;;15.70;99.90;;;;;;1863647;77;21161;-76
2021/05/10 05:42:27;;;;;;;6.80;1.47;;;15.80;99.90;;;;;;1863488;77;21112;-76
2021/05/10 05:44:54;;;;;;;6.33;1.10;;;15.80;99.90;;;;;;1863617;77;21204;-76
2021/05/10 05:47:28;;;;;;;1.47;1.00;;;16.00;99.90;;;;;;1863436;77;21079;-74
2021/05/10 05:49:54;;;;;;;4.17;1.10;;;16.10;99.90;;;;;;1863454;77;21116;-75
2021/05/10 05:52:21;;;;;;;2.90;1.40;;;16.00;99.90;;;;;;1863710;77;21075;-76
2021/05/10 05:54:47;;;;;;;2.33;1.20;;;16.20;99.90;;;;;;1863337;77;21118;-75
2021/05/10 05:57:13;;;;;;;8.35;1.57;;;16.40;99.90;;;;;;1863395;77;21123;-76
2021/05/10 05:59:39;;;;;;;8.05;1.82;;;16.70;99.90;;;;;;1863356;77;21108;-75
2021/05/10 06:02:06;;;;;;;8.08;1.70;;;16.90;99.90;;;;;;1863595;77;21072;-75
2021/05/10 06:04:32;;;;;;;6.37;1.52;;;16.80;99.90;;;;;;1863672;77;21068;-75
2021/05/10 06:06:58;;;;;;;4.50;1.17;;;16.80;99.90;;;;;;1863611;77;21145;-75
2021/05/10 06:09:25;;;;;;;3.40;1.35;;;17.00;99.90;;;;;;1863652;77;21053;-75
2021/05/10 06:11:54;;;;;;;6.87;1.42;;;17.10;99.90;;;;;;1863553;77;21082;-75
2021/05/10 06:14:19;;;;;;;14.78;1.47;;;17.40;99.90;;;;;;1863248;77;21182;-75
2021/05/10 06:16:45;;;;;;;5.45;1.20;;;17.60;99.90;;;;;;1857696;77;21084;-75
2021/05/10 06:19:12;;;;;;;4.03;1.30;;;17.60;99.90;;;;;;1863315;77;21137;-75
2021/05/10 06:21:38;;;;;;;3.98;1.17;;;17.60;99.90;;;;;;1863528;77;21084;-75
2021/05/10 06:24:04;;;;;;;4.33;0.88;;;17.90;99.90;;;;;;1863438;77;21546;-75
2021/05/10 06:26:30;;;;;;;1.85;1.10;;;18.10;99.90;;;;;;1863544;77;21511;-75
2021/05/10 06:28:56;;;;;;;1.85;0.80;;;18.40;99.90;;;;;;1863527;77;21417;-74
2021/05/10 06:31:22;;;;;;;5.40;1.17;;;18.70;99.90;;;;;;1863478;77;21487;-75
2021/05/10 06:33:48;;;;;;;2.95;1.20;;;18.70;99.90;;;;;;1863467;77;21489;-76
2021/05/10 06:36:14;;;;;;;1.90;1.20;;;18.60;99.90;;;;;;1863513;77;21492;-75
2021/05/10 06:38:40;;;;;;;5.22;1.25;;;18.60;99.90;;;;;;1863504;77;21060;-74
2021/05/10 06:41:07;;;;;;;3.22;1.47;;;18.90;99.90;;;;;;1863534;77;21146;-74
2021/05/10 06:43:33;;;;;;;8.20;1.57;;;19.30;99.90;;;;;;1863467;77;21153;-75
2021/05/10 06:46:00;;;;;;;2.17;1.12;;;19.20;99.90;;;;;;1863438;77;21117;-74
2021/05/10 06:48:26;;;;;;;7.10;1.35;;;19.30;99.90;;;;;;1863635;77;21048;-74
2021/05/10 06:50:53;;;;;;;5.97;1.80;;;19.40;99.90;;;;;;1863529;77;21021;-75
2021/05/10 06:53:19;;;;;;;5.37;1.50;;;19.40;99.90;;;;;;1863938;76;21072;-73
2021/05/10 06:55:47;;;;;;;4.05;1.65;;;19.40;99.90;;;;;;1863532;77;21097;-76
2021/05/10 06:58:15;;;;;;;2.75;1.25;;;19.50;99.90;;;;;;1863266;77;21101;-76
2021/05/10 07:00:42;;;;;;;3.90;1.70;;;19.90;99.90;;;;;;1863831;77;21108;-76
2021/05/10 07:03:10;;;;;;;7.95;1.75;;;20.00;99.90;;;;;;1863972;77;21068;-77
2021/05/10 07:05:36;;;;;;;3.52;1.65;;;20.10;99.90;;;;;;1863237;77;21167;-76
2021/05/10 07:08:03;;;;;;;4.15;1.42;;;20.40;99.90;;;;;;1863981;77;21049;-74
2021/05/10 07:10:29;;;;;;;4.58;1.75;;;20.40;99.90;;;;;;1863788;77;21104;-75
2021/05/10 07:12:56;;;;;;;4.45;2.50;;;20.50;99.90;;;;;;1863780;77;21084;-74
2021/05/10 07:15:23;;;;;;;11.75;2.65;;;20.60;99.90;;;;;;1863844;77;21541;-73
2021/05/10 07:17:49;;;;;;;10.90;2.40;;;20.70;99.90;;;;;;1863832;77;21460;-73
2021/05/10 07:20:15;;;;;;;7.30;2.37;;;20.60;99.90;;;;;;1863742;77;21495;-73
2021/05/10 07:22:41;;;;;;;5.60;1.65;;;20.70;99.90;;;;;;1863560;77;21488;-74
2021/05/10 07:25:07;;;;;;;5.50;2.10;;;20.90;99.90;;;;;;1863739;77;21483;-73
2021/05/10 07:27:33;;;;;;;8.20;1.57;;;21.10;99.90;;;;;;1863662;77;21485;-72
2021/05/10 07:29:59;;;;;;;4.55;1.87;;;21.10;99.90;;;;;;1863512;77;21485;-72
2021/05/10 07:32:25;;;;;;;4.87;1.90;;;21.20;99.90;;;;;;1863785;77;21480;-70
2021/05/10 07:34:52;;;;;;;1.72;1.20;;;21.40;99.90;;;;;;1863799;77;21072;-74
2021/05/10 07:37:18;;;;;;;7.40;1.37;;;21.90;99.90;;;;;;1863598;77;21150;-72
2021/05/10 07:39:44;;;;;;;2.62;0.70;;;22.60;99.90;;;;;;1863612;77;21064;-74
2021/05/10 07:42:10;;;;;;;0.85;0.75;;;23.50;99.90;;;;;;1863743;77;21075;-74
2021/05/10 07:44:36;;;;;;;1.40;0.55;;;24.10;99.90;;;;;;1863708;77;21146;-73
2021/05/10 07:47:02;;;;;;;0.57;0.57;;;24.10;99.90;;;;;;1863739;77;21076;-74
2021/05/10 07:49:29;;;;;;;6.97;1.00;;;23.90;99.90;;;;;;1863767;77;21025;-73
2021/05/10 07:51:55;;;;;;;0.68;0.53;;;23.40;99.90;;;;;;1863435;77;21064;-73
2021/05/10 07:54:21;;;;;;;2.22;0.78;;;23.40;99.90;;;;;;1863678;77;21137;-73
2021/05/10 07:56:47;;;;;;;4.08;0.70;;;23.20;99.90;;;;;;1863590;77;21118;-72
2021/05/10 07:59:13;;;;;;;0.95;0.50;;;23.00;99.90;;;;;;1863762;77;21441;-72
2021/05/10 08:01:41;;;;;;;2.30;0.50;;;22.90;99.90;;;;;;1863705;77;21056;-72
2021/05/10 08:04:07;;;;;;;2.62;1.12;;;22.90;99.90;;;;;;1858060;77;21507;-72
2021/05/10 08:06:33;;;;;;;1.70;0.60;;;22.70;99.90;;;;;;1863519;77;21163;-72
2021/05/10 08:09:00;;;;;;;9.60;0.85;;;22.20;99.90;;;;;;1863706;77;21067;-72
2021/05/10 08:11:26;;;;;;;9.88;0.90;;;22.00;99.90;;;;;;1863640;77;21064;-72
2021/05/10 08:13:52;;;;;;;2.72;0.72;;;21.90;99.90;;;;;;1863833;77;21166;-71
2021/05/10 08:16:18;;;;;;;1.75;0.65;;;21.80;99.90;;;;;;1863820;77;21072;-72
2021/05/10 08:18:44;;;;;;;1.02;0.82;;;21.70;99.90;;;;;;1863684;77;21151;-72
2021/05/10 08:21:11;;;;;;;1.00;0.62;;;21.90;99.90;;;;;;1863933;77;21048;-81
2021/05/10 08:23:37;;;;;;;4.65;0.70;;;22.60;99.90;;;;;;1864092;77;21378;-72
2021/05/10 08:26:03;;;;;;;1.85;0.53;;;23.00;99.90;;;;;;1864118;77;21472;-78
2021/05/10 08:28:31;;;;;;;4.85;1.10;;;23.40;99.90;;;;;;1863968;77;21122;-78
2021/05/10 08:30:59;;;;;;;1.52;0.70;;;23.50;99.90;;;;;;1863971;77;21158;-77
2021/05/10 08:33:25;;;;;;;1.40;0.42;;;23.40;99.90;;;;;;1863434;77;21138;-73
2021/05/10 08:35:51;;;;;;;2.47;0.72;;;23.40;99.90;;;;;;1863789;77;21183;-73
2021/05/10 08:38:17;;;;;;;0.93;0.60;;;23.50;99.90;;;;;;1864184;77;21157;-74
2021/05/10 08:40:43;;;;;;;1.05;0.68;;;23.50;99.90;;;;;;1864020;77;21151;-76
2021/05/10 08:43:09;;;;;;;5.65;1.07;;;23.40;99.90;;;;;;1863976;77;21072;-74
2021/05/10 08:45:35;;;;;;;3.58;0.50;;;23.40;99.90;;;;;;1864049;77;21138;-75
2021/05/10 08:48:05;;;;;;;1.25;0.60;;;23.30;99.90;;;;;;1858009;77;21527;-74
2021/05/10 08:50:29;;;;;;;7.33;0.70;;;23.40;99.90;;;;;;1863544;77;21104;-74
2021/05/10 08:52:55;;;;;;;2.00;0.70;;;23.70;99.90;;;;;;1864160;77;21057;-74
2021/05/10 08:55:22;;;;;;;1.15;0.82;;;24.40;99.90;;;;;;1864104;77;21043;-75
2021/05/10 08:57:48;;;;;;;4.15;0.93;;;24.10;99.90;;;;;;1864042;77;21452;-72
2021/05/10 09:00:14;;;;;;;1.50;1.00;;;24.10;99.90;;;;;;1863971;77;21590;-74
2021/05/10 09:02:41;;;;;;;3.33;0.80;;;24.20;99.90;;;;;;1864123;77;21440;-76
2021/05/10 09:05:08;;;;;;;1.47;0.68;;;24.20;99.90;;;;;;1863943;77;21138;-74
2021/05/10 09:07:35;;;;;;;1.30;0.60;;;24.10;99.90;;;;;;1863892;77;21139;-74
2021/05/10 09:10:02;;;;;;;1.87;0.82;;;24.00;99.90;;;;;;1863522;77;21128;-76
2021/05/10 09:12:28;;;;;;;4.35;0.90;;;23.70;99.90;;;;;;1863460;77;21578;-76
2021/05/10 09:14:55;;;;;;;0.78;0.42;;;23.70;99.90;;;;;;1863848;77;21115;-75
2021/05/10 09:17:21;;;;;;;0.47;0.40;;;23.50;99.90;;;;;;1863437;77;21100;-76
2021/05/10 09:19:49;;;;;;;6.08;0.90;;;23.50;99.90;;;;;;1863604;77;21110;-74
2021/05/10 09:22:15;;;;;;;3.02;0.50;;;23.50;99.90;;;;;;1863449;77;21570;-74
2021/05/10 09:24:41;;;;;;;2.02;1.02;;;23.80;99.90;;;;;;1863706;77;21476;-74
2021/05/10 09:27:07;;;;;;;1.35;0.78;;;23.90;99.90;;;;;;1863503;77;21492;-74
2021/05/10 09:29:33;;;;;;;0.57;0.40;;;23.80;99.90;;;;;;1863494;77;21581;-74
2021/05/10 09:31:59;;;;;;;3.70;0.85;;;23.50;99.90;;;;;;1863374;77;21489;-75
2021/05/10 09:34:26;;;;;;;3.05;0.53;;;23.40;99.90;;;;;;1863507;77;21491;-74
2021/05/10 09:36:54;;;;;;;5.62;0.93;;;23.10;99.90;;;;;;1863622;77;21145;-74
2021/05/10 09:39:23;;;;;;;0.88;0.70;;;23.00;99.90;;;;;;1863626;77;21079;-74
2021/05/10 09:41:49;;;;;;;4.00;1.22;;;23.10;99.90;;;;;;1863326;76;21444;-74
2021/05/10 09:44:15;;;;;;;3.15;1.32;;;23.10;99.90;;;;;;1863563;77;21500;-74
2021/05/10 09:46:42;;;;;;;1.50;0.50;;;23.00;99.90;;;;;;1863589;77;21480;-74
2021/05/10 09:49:09;;;;;;;1.77;0.70;;;23.00;99.90;;;;;;1863514;76;21079;-74
2021/05/10 09:51:35;;;;;;;2.33;0.85;;;23.30;99.90;;;;;;1864681;76;21216;-75
2021/05/10 09:54:03;;;;;;;0.50;0.50;;;23.40;99.90;;;;;;1863366;77;21076;-74
2021/05/10 09:56:37;;;;;;;12.73;0.90;;;23.20;99.90;;;;;;1863313;77;21105;-74
2021/05/10 09:59:02;;;;;;;6.92;1.15;;;23.30;99.90;;;;;;1863945;76;21232;-75
2021/05/10 10:01:29;;;;;;;4.05;0.60;;;23.80;99.90;;;;;;1863570;77;21153;-74
2021/05/10 10:03:56;;;;;;;4.17;0.98;;;24.20;99.90;;;;;;1863220;77;21151;-74
2021/05/10 10:06:22;;;;;;;0.78;0.42;;;24.20;99.90;;;;;;1863508;77;21504;-74
2021/05/10 10:08:49;;;;;;;2.42;0.60;;;24.10;99.90;;;;;;1864462;77;21548;-74
2021/05/10 10:11:17;;;;;;;2.62;0.85;;;24.00;99.90;;;;;;1864121;77;21103;-75
2021/05/10 10:13:44;;;;;;;0.47;0.47;;;23.90;99.90;;;;;;1864557;77;21205;-75
2021/05/10 10:16:10;;;;;;;0.72;0.50;;;23.80;99.90;;;;;;1863222;77;21246;-74
2021/05/10 10:18:36;;;;;;;2.33;0.60;;;23.80;99.90;;;;;;1863486;77;21083;-74
2021/05/10 10:21:02;;;;;;;1.17;0.60;;;23.80;99.90;;;;;;1863087;77;21145;-74
2021/05/10 10:23:28;;;;;;;5.20;0.82;;;23.60;99.90;;;;;;1863047;77;21145;-75
2021/05/10 10:25:56;;;;;;;2.37;0.65;;;23.50;99.90;;;;;;1862996;77;21271;-75
2021/05/10 10:28:22;;;;;;;2.72;0.30;;;23.30;99.90;;;;;;1863147;77;21484;-75
2021/05/10 10:30:48;;;;;;;5.03;0.37;;;22.80;99.90;;;;;;1863167;77;21585;-74
2021/05/10 10:33:15;;;;;;;0.62;0.40;;;22.90;99.90;;;;;;1863437;77;21102;-75
2021/05/10 10:35:42;;;;;;;1.85;0.37;;;22.80;99.90;;;;;;1863451;77;21499;-75
2021/05/10 10:38:09;;;;;;;1.50;0.50;;;23.10;99.90;;;;;;1862942;77;21116;-75
2021/05/10 10:40:37;;;;;;;0.93;0.42;;;23.20;99.90;;;;;;1863272;77;21092;-74
2021/05/10 10:43:03;;;;;;;0.20;0.20;;;23.60;99.90;;;;;;1863292;77;21471;-74
2021/05/10 10:45:29;;;;;;;3.77;0.50;;;23.40;99.90;;;;;;1863348;77;21565;-76
2021/05/10 10:47:59;;;;;;;0.20;0.20;;;23.40;99.90;;;;;;1863155;77;21165;-75
2021/05/10 10:50:25;;;;;;;0.95;0.23;;;23.60;99.90;;;;;;1862977;77;21167;-73
2021/05/10 10:52:51;;;;;;;2.40;0.35;;;23.50;99.90;;;;;;1863362;77;21577;-75
2021/05/10 10:55:17;;;;;;;1.85;0.50;;;23.20;99.90;;;;;;1863457;77;21080;-76
2021/05/10 10:57:43;;;;;;;0.62;0.28;;;23.20;99.90;;;;;;1863421;77;21161;-74
2021/05/10 11:00:10;;;;;;;0.30;0.30;;;23.20;99.90;;;;;;1863339;77;21084;-73
2021/05/10 11:02:36;;;;;;;1.57;0.28;;;23.80;99.90;;;;;;1863413;77;21492;-74
2021/05/10 11:05:02;;;;;;;0.35;0.30;;;23.80;99.90;;;;;;1863435;77;21534;-76
2021/05/10 11:07:28;;;;;;;0.42;0.30;;;23.60;99.90;;;;;;1863894;77;21084;-74
2021/05/10 11:09:54;;;;;;;3.08;0.60;;;23.30;99.90;;;;;;1864646;77;21157;-74
2021/05/10 11:12:20;;;;;;;1.77;0.60;;;23.10;99.90;;;;;;1864140;77;21150;-74
2021/05/10 11:14:47;;;;;;;1.17;0.40;;;22.70;99.90;;;;;;1863309;77;21128;-75
2021/05/10 11:17:13;;;;;;;0.65;0.30;;;22.60;99.90;;;;;;1863189;77;21083;-74
2021/05/10 11:19:41;;;;;;;1.55;0.47;;;22.30;99.90;;;;;;1863192;77;21188;-75
2021/05/10 11:22:07;;;;;;;0.23;0.20;;;22.10;99.90;;;;;;1863095;77;21112;-75
2021/05/10 11:24:33;;;;;;;1.80;0.30;;;21.90;99.90;;;;;;1863263;77;21079;-75
2021/05/10 11:29:45;;;;;;;2.10;0.30;;;21.80;99.90;;;;;;1863313;77;21535;-75
2021/05/10 11:32:16;;;;;;;1.75;0.42;;;21.70;99.90;;;;;;1863259;77;21124;-75
2021/05/10 11:34:41;;;;;;;3.40;0.30;;;21.80;99.90;;;;;;1862886;77;21182;-77
2021/05/10 11:37:08;;;;;;;1.52;0.53;;;21.70;99.90;;;;;;1863439;77;21142;-75
2021/05/10 11:39:35;;;;;;;7.10;0.98;;;21.80;99.90;;;;;;1863823;77;21146;-76
2021/05/10 11:42:02;;;;;;;2.50;0.80;;;22.00;99.90;;;;;;1863125;77;21176;-76
2021/05/10 11:44:28;;;;;;;4.47;1.15;;;22.00;99.90;;;;;;1839019;77;21084;-76
2021/05/10 11:46:55;;;;;;;1.10;0.40;;;21.90;99.90;;;;;;1863217;77;21570;-75
2021/05/10 11:49:21;;;;;;;1.50;0.30;;;21.90;99.90;;;;;;1863305;77;21421;-74
2021/05/10 11:51:47;;;;;;;0.60;0.20;;;21.80;99.90;;;;;;1859659;76;21083;-75
2021/05/10 11:54:17;;;;;;;0.40;0.30;;;22.00;99.90;;;;;;1864782;77;21100;-75
2021/05/10 11:56:49;;;;;;;0.35;0.30;;;22.00;99.90;;;;;;1862074;75;21198;-75
2021/05/10 11:59:22;;;;;;;8.28;0.33;;;22.00;99.90;;;;;;1863016;77;21139;-76
2021/05/10 12:01:42;;;;;;;1.30;0.40;;;21.90;99.90;;;;;;1861764;75;21209;-75
2021/05/10 12:04:10;;;;;;;0.40;0.23;;;21.60;99.90;;;;;;1863320;77;21154;-74
2021/05/10 12:06:36;;;;;;;0.30;0.30;;;21.60;99.90;;;;;;1863202;76;21170;-74
2021/05/10 12:09:02;;;;;;;3.85;0.40;;;21.40;99.90;;;;;;1863079;77;21083;-74
2021/05/10 12:11:29;;;;;;;7.87;0.50;;;21.40;99.90;;;;;;1863305;77;21075;-77
2021/05/10 12:13:55;;;;;;;2.77;0.23;;;21.30;99.90;;;;;;1863337;77;21146;-76
2021/05/10 12:16:21;;;;;;;3.90;0.33;;;21.30;99.90;;;;;;1862941;77;21523;-74
2021/05/10 12:18:47;;;;;;;3.70;0.30;;;21.60;99.90;;;;;;1863138;77;21480;-73
2021/05/10 12:21:14;;;;;;;2.25;0.60;;;21.70;99.90;;;;;;1862971;77;21553;-74
2021/05/10 12:23:40;;;;;;;1.30;0.62;;;21.70;99.90;;;;;;1838990;77;21427;-73
2021/05/10 12:26:06;;;;;;;0.53;0.25;;;21.80;99.90;;;;;;1862863;77;21079;-74
2021/05/10 12:28:32;;;;;;;0.85;0.10;;;21.80;99.90;;;;;;1863083;77;21157;-74
2021/05/10 12:30:59;;;;;;;2.75;0.20;;;21.70;99.90;;;;;;1862982;77;21153;-74
2021/05/10 12:33:25;;;;;;;1.92;0.53;;;21.60;99.90;;;;;;1862995;77;21131;-73
2021/05/10 12:35:51;;;;;;;2.37;0.53;;;21.60;99.90;;;;;;1862940;77;21149;-74
2021/05/10 12:38:17;;;;;;;6.30;0.20;;;21.50;99.90;;;;;;1862906;77;21524;-74
2021/05/10 12:40:43;;;;;;;1.55;0.25;;;21.40;99.90;;;;;;1863021;77;21500;-75
2021/05/10 12:43:10;;;;;;;0.55;0.33;;;21.40;99.90;;;;;;1862910;77;21512;-74
2021/05/10 12:45:36;;;;;;;0.70;0.28;;;21.40;99.90;;;;;;1863000;77;21084;-74
2021/05/10 12:48:02;;;;;;;0.10;0.10;;;21.40;99.90;;;;;;1863219;77;21145;-74
2021/05/10 12:50:28;;;;;;;0.53;0.30;;;21.10;99.90;;;;;;1863057;77;21079;-75
2021/05/10 12:52:54;;;;;;;0.30;0.20;;;21.30;99.90;;;;;;1863024;77;21226;-76